createdAt,value
2023-05-01T00:00:51.884Z,13.74
2023-05-01T00:01:51.878Z,13.74
2023-05-01T00:02:51.991Z,13.72
2023-05-01T00:03:52.015Z,13.71
2023-05-01T00:04:51.931Z,13.71
2023-05-01T00:05:51.811Z,13.65
2023-05-01T00:06:51.898Z,13.65
2023-05-01T00:07:51.831Z,13.67
2023-05-01T00:08:51.772Z,13.59
2023-05-01T00:09:51.764Z,13.57
2023-05-01T00:10:51.739Z,13.59
2023-05-01T00:11:51.742Z,13.60
2023-05-01T00:12:51.706Z,13.62
2023-05-01T00:13:51.696Z,13.62
2023-05-01T00:14:51.679Z,13.59
2023-05-01T00:15:51.811Z,13.56
2023-05-01T00:16:51.709Z,13.53
2023-05-01T00:17:51.703Z,13.52
2023-05-01T00:18:51.638Z,13.49
2023-05-01T00:19:51.633Z,13.46
2023-05-01T00:20:51.610Z,13.39
2023-05-01T00:21:51.618Z,13.41
2023-05-01T00:22:51.587Z,13.42
2023-05-01T00:23:51.586Z,13.42
2023-05-01T00:24:51.547Z,13.39
2023-05-01T00:25:51.537Z,13.33
2023-05-01T00:26:51.531Z,13.37
2023-05-01T00:27:51.499Z,13.31
2023-05-01T00:28:51.501Z,13.28
2023-05-01T00:29:51.485Z,13.28
2023-05-01T00:30:51.464Z,13.27
2023-05-01T00:31:51.662Z,13.22
2023-05-01T00:32:51.468Z,13.18
2023-05-01T00:33:51.430Z,13.18
2023-05-01T00:34:51.418Z,13.15
2023-05-01T00:35:51.421Z,13.04
2023-05-01T00:36:51.402Z,13.09
2023-05-01T00:37:51.370Z,13.00
2023-05-01T00:38:51.374Z,13.03
2023-05-01T00:39:51.368Z,12.97
2023-05-01T00:40:51.340Z,12.90
2023-05-01T00:41:51.333Z,12.97
2023-05-01T00:42:51.314Z,12.90
2023-05-01T00:43:51.293Z,12.87
2023-05-01T00:44:51.283Z,12.83
2023-05-01T00:45:51.435Z,12.87
2023-05-01T00:46:51.269Z,12.86
2023-05-01T00:47:51.295Z,12.85
2023-05-01T00:48:51.230Z,12.78
2023-05-01T00:49:51.224Z,12.75
2023-05-01T00:50:52.115Z,12.75
2023-05-01T00:51:51.203Z,12.72
2023-05-01T00:52:51.187Z,12.73
2023-05-01T00:53:51.159Z,12.70
2023-05-01T00:54:51.147Z,12.67
2023-05-01T00:55:51.163Z,12.67
2023-05-01T00:56:51.138Z,12.67
2023-05-01T00:57:51.137Z,12.61
2023-05-01T00:58:51.096Z,12.58
2023-05-01T00:59:51.088Z,12.62
2023-05-01T01:00:51.118Z,12.62
2023-05-01T01:01:51.074Z,12.64
2023-05-01T01:02:51.100Z,12.67
2023-05-01T01:03:51.037Z,12.61
2023-05-01T01:04:51.081Z,12.58
2023-05-01T01:05:51.004Z,12.61
2023-05-01T01:06:51.021Z,12.61
2023-05-01T01:07:51.067Z,12.60
2023-05-01T01:08:50.965Z,12.58
2023-05-01T01:09:50.968Z,12.57
2023-05-01T01:10:50.948Z,12.60
2023-05-01T01:11:50.970Z,12.57
2023-05-01T01:12:50.918Z,12.55
2023-05-01T01:13:50.908Z,12.55
2023-05-01T01:14:50.923Z,12.53
2023-05-01T01:15:50.881Z,12.53
2023-05-01T01:16:52.133Z,12.47
2023-05-01T01:17:50.896Z,12.53
2023-05-01T01:18:50.835Z,12.45
2023-05-01T01:19:50.818Z,12.42
2023-05-01T01:20:50.805Z,12.45
2023-05-01T01:21:50.846Z,12.45
2023-05-01T01:22:50.780Z,12.46
2023-05-01T01:23:50.778Z,12.46
2023-05-01T01:24:50.765Z,12.40
2023-05-01T01:25:50.741Z,12.45
2023-05-01T01:26:50.747Z,12.46
2023-05-01T01:27:50.749Z,12.46
2023-05-01T01:28:50.711Z,12.46
2023-05-01T01:29:50.692Z,12.45
2023-05-01T01:30:50.713Z,12.46
2023-05-01T01:31:50.669Z,12.47
2023-05-01T01:32:50.716Z,12.46
2023-05-01T01:33:50.646Z,12.49
2023-05-01T01:34:51.610Z,12.49
2023-05-01T01:35:50.614Z,12.45
2023-05-01T01:36:50.623Z,12.43
2023-05-01T01:37:50.636Z,12.40
2023-05-01T01:38:50.576Z,12.37
2023-05-01T01:39:50.559Z,12.31
2023-05-01T01:40:50.566Z,12.28
2023-05-01T01:41:50.552Z,12.24
2023-05-01T01:42:50.539Z,12.21
2023-05-01T01:43:50.545Z,12.18
2023-05-01T01:44:50.500Z,12.17
2023-05-01T01:45:50.538Z,12.13
2023-05-01T01:46:50.489Z,12.13
2023-05-01T01:47:50.604Z,12.09
2023-05-01T01:48:50.453Z,12.07
2023-05-01T01:49:50.433Z,12.06
2023-05-01T01:50:50.420Z,12.06
2023-05-01T01:51:50.406Z,12.07
2023-05-01T01:52:50.414Z,12.02
2023-05-01T01:53:50.409Z,12.00
2023-05-01T01:54:50.382Z,11.95
2023-05-01T01:55:50.377Z,11.94
2023-05-01T01:56:50.356Z,11.95
2023-05-01T01:57:50.352Z,11.91
2023-05-01T01:58:50.321Z,11.95
2023-05-01T01:59:50.331Z,11.91
2023-05-01T02:00:50.295Z,11.95
2023-05-01T02:01:50.330Z,11.90
2023-05-01T02:02:50.332Z,11.90
2023-05-01T02:03:50.335Z,11.86
2023-05-01T02:04:50.246Z,11.86
2023-05-01T02:05:50.232Z,11.86
2023-05-01T02:06:50.410Z,11.88
2023-05-01T02:07:50.217Z,11.87
2023-05-01T02:08:50.188Z,11.83
2023-05-01T02:09:50.172Z,11.83
2023-05-01T02:10:51.110Z,11.77
2023-05-01T02:11:50.156Z,11.80
2023-05-01T02:12:50.157Z,11.77
2023-05-01T02:13:50.123Z,11.77
2023-05-01T02:14:50.110Z,11.77
2023-05-01T02:15:50.119Z,11.75
2023-05-01T02:16:50.086Z,11.83
2023-05-01T02:17:50.119Z,11.73
2023-05-01T02:18:50.058Z,11.72
2023-05-01T02:19:50.048Z,11.72
2023-05-01T02:20:50.040Z,11.73
2023-05-01T02:21:50.022Z,11.77
2023-05-01T02:22:50.044Z,11.72
2023-05-01T02:23:49.994Z,11.68
2023-05-01T02:24:49.985Z,11.63
2023-05-01T02:25:49.976Z,11.55
2023-05-01T02:26:49.955Z,11.62
2023-05-01T02:27:49.949Z,11.62
2023-05-01T02:28:49.953Z,11.59
2023-05-01T02:29:49.919Z,11.60
2023-05-01T02:30:49.904Z,11.60
2023-05-01T02:31:49.935Z,11.59
2023-05-01T02:32:49.982Z,11.60
2023-05-01T02:33:49.864Z,11.55
2023-05-01T02:34:49.852Z,11.55
2023-05-01T02:35:49.841Z,11.54
2023-05-01T02:36:49.827Z,11.59
2023-05-01T02:37:49.827Z,11.57
2023-05-01T02:38:49.806Z,11.59
2023-05-01T02:39:49.784Z,11.60
2023-05-01T02:40:49.776Z,11.59
2023-05-01T02:41:50.603Z,11.52
2023-05-01T02:42:49.769Z,11.54
2023-05-01T02:43:49.768Z,11.54
2023-05-01T02:44:49.729Z,11.52
2023-05-01T02:45:49.765Z,11.51
2023-05-01T02:46:49.758Z,11.50
2023-05-01T02:47:49.753Z,11.52
2023-05-01T02:48:49.676Z,11.50
2023-05-01T02:49:49.677Z,11.52
2023-05-01T02:50:49.656Z,11.51
2023-05-01T02:51:49.636Z,11.48
2023-05-01T02:52:49.618Z,11.48
2023-05-01T02:53:49.625Z,11.30
2023-05-01T02:54:49.592Z,11.23
2023-05-01T02:55:49.580Z,11.23
2023-05-01T02:56:49.585Z,11.14
2023-05-01T02:57:49.555Z,11.02
2023-05-01T02:58:49.559Z,10.89
2023-05-01T02:59:49.558Z,10.79
2023-05-01T03:00:49.786Z,10.79
2023-05-01T03:01:49.594Z,10.81
2023-05-01T03:02:49.522Z,10.81
2023-05-01T03:03:49.645Z,10.86
2023-05-01T03:04:49.461Z,10.92
2023-05-01T03:05:49.445Z,10.90
2023-05-01T03:06:49.532Z,10.92
2023-05-01T03:07:49.420Z,10.94
2023-05-01T03:08:49.423Z,10.97
2023-05-01T03:09:49.395Z,11.00
2023-05-01T03:10:49.393Z,11.07
2023-05-01T03:11:49.370Z,11.00
2023-05-01T03:12:49.358Z,11.08
2023-05-01T03:13:49.379Z,11.07
2023-05-01T03:14:49.328Z,11.07
2023-05-01T03:15:49.335Z,11.10
2023-05-01T03:16:49.342Z,11.05
2023-05-01T03:17:49.314Z,11.08
2023-05-01T03:18:49.289Z,11.10
2023-05-01T03:19:49.285Z,11.10
2023-05-01T03:20:49.259Z,11.07
2023-05-01T03:21:49.234Z,11.04
2023-05-01T03:22:49.232Z,11.08
2023-05-01T03:23:49.245Z,11.04
2023-05-01T03:24:49.196Z,11.02
2023-05-01T03:25:49.178Z,11.02
2023-05-01T03:26:49.174Z,11.04
2023-05-01T03:27:49.148Z,11.10
2023-05-01T03:28:49.156Z,11.30
2023-05-01T03:29:49.128Z,11.35
2023-05-01T03:30:49.111Z,11.35
2023-05-01T03:31:49.134Z,11.43
2023-05-01T03:32:49.161Z,11.33
2023-05-01T03:33:49.109Z,11.40
2023-05-01T03:34:49.070Z,11.27
2023-05-01T03:35:49.242Z,11.22
2023-05-01T03:36:49.034Z,11.15
2023-05-01T03:37:49.021Z,11.11
2023-05-01T03:38:49.024Z,11.04
2023-05-01T03:39:48.994Z,11.00
2023-05-01T03:40:48.979Z,11.04
2023-05-01T03:41:48.963Z,11.05
2023-05-01T03:42:48.955Z,11.10
2023-05-01T03:43:49.082Z,11.25
2023-05-01T03:44:48.987Z,11.27
2023-05-01T03:45:49.080Z,11.27
2023-05-01T03:46:48.972Z,11.23
2023-05-01T03:47:48.950Z,11.05
2023-05-01T03:48:48.901Z,10.96
2023-05-01T03:49:48.863Z,10.92
2023-05-01T03:50:48.846Z,10.87
2023-05-01T03:51:48.863Z,10.86
2023-05-01T03:52:48.842Z,10.87
2023-05-01T03:53:48.826Z,10.93
2023-05-01T03:54:48.794Z,10.94
2023-05-01T03:55:48.781Z,10.97
2023-05-01T03:56:48.788Z,11.04
2023-05-01T03:57:48.752Z,11.07
2023-05-01T03:58:48.775Z,11.08
2023-05-01T03:59:48.724Z,11.04
2023-05-01T04:00:48.733Z,10.89
2023-05-01T04:01:48.718Z,10.76
2023-05-01T04:02:48.951Z,10.78
2023-05-01T04:03:48.831Z,10.72
2023-05-01T04:04:48.660Z,10.78
2023-05-01T04:05:49.588Z,10.78
2023-05-01T04:06:48.741Z,10.84
2023-05-01T04:07:48.651Z,10.90
2023-05-01T04:08:48.636Z,10.89
2023-05-01T04:09:48.607Z,10.90
2023-05-01T04:10:48.583Z,10.94
2023-05-01T04:11:48.567Z,10.96
2023-05-01T04:12:48.582Z,10.96
2023-05-01T04:13:48.671Z,10.92
2023-05-01T04:14:48.553Z,10.94
2023-05-01T04:15:48.579Z,11.04
2023-05-01T04:16:48.505Z,10.97
2023-05-01T04:17:48.560Z,10.97
2023-05-01T04:18:48.481Z,11.00
2023-05-01T04:19:48.476Z,10.97
2023-05-01T04:20:48.447Z,10.93
2023-05-01T04:21:48.432Z,10.94
2023-05-01T04:22:48.431Z,10.92
2023-05-01T04:23:48.428Z,10.84
2023-05-01T04:24:48.422Z,10.76
2023-05-01T04:25:48.384Z,10.79
2023-05-01T04:26:48.380Z,10.78
2023-05-01T04:27:48.402Z,10.82
2023-05-01T04:28:48.343Z,10.74
2023-05-01T04:29:48.345Z,10.67
2023-05-01T04:30:48.319Z,10.69
2023-05-01T04:31:48.348Z,10.71
2023-05-01T04:32:48.316Z,10.74
2023-05-01T04:33:48.275Z,10.78
2023-05-01T04:34:48.281Z,10.82
2023-05-01T04:35:48.246Z,10.87
2023-05-01T04:36:48.233Z,10.90
2023-05-01T04:37:48.231Z,10.99
2023-05-01T04:38:48.210Z,10.99
2023-05-01T04:39:48.230Z,10.94
2023-05-01T04:40:48.190Z,10.90
2023-05-01T04:41:48.173Z,10.92
2023-05-01T04:42:48.153Z,10.99
2023-05-01T04:43:48.151Z,11.07
2023-05-01T04:44:48.155Z,11.14
2023-05-01T04:45:48.120Z,11.12
2023-05-01T04:46:48.201Z,11.15
2023-05-01T04:47:48.133Z,11.10
2023-05-01T04:48:48.081Z,11.17
2023-05-01T04:49:48.077Z,11.14
2023-05-01T04:50:48.052Z,11.22
2023-05-01T04:51:50.588Z,11.18
2023-05-01T04:52:48.024Z,11.11
2023-05-01T04:53:48.599Z,11.02
2023-05-01T04:54:48.012Z,11.08
2023-05-01T04:55:48.002Z,11.14
2023-05-01T04:56:47.971Z,11.14
2023-05-01T04:57:47.963Z,11.19
2023-05-01T04:58:48.596Z,11.19
2023-05-01T04:59:47.927Z,11.27
2023-05-01T05:00:47.917Z,11.26
2023-05-01T05:01:47.946Z,11.22
2023-05-01T05:02:47.942Z,11.26
2023-05-01T05:03:49.794Z,11.29
2023-05-01T05:04:47.879Z,11.41
2023-05-01T05:05:47.854Z,11.44
2023-05-01T05:06:47.971Z,11.54
2023-05-01T05:07:47.829Z,11.69
2023-05-01T05:08:47.815Z,11.75
2023-05-01T05:09:47.811Z,11.60
2023-05-01T05:10:47.796Z,11.52
2023-05-01T05:11:47.807Z,11.54
2023-05-01T05:12:47.772Z,11.63
2023-05-01T05:13:47.752Z,11.65
2023-05-01T05:14:47.752Z,11.81
2023-05-01T05:15:47.734Z,11.97
2023-05-01T05:16:47.810Z,12.03
2023-05-01T05:17:47.725Z,12.17
2023-05-01T05:18:47.695Z,12.27
2023-05-01T05:19:47.687Z,12.32
2023-05-01T05:20:47.659Z,12.36
2023-05-01T05:21:47.644Z,12.50
2023-05-01T05:22:47.632Z,12.64
2023-05-01T05:23:47.620Z,12.80
2023-05-01T05:24:48.092Z,12.91
2023-05-01T05:25:47.592Z,13.01
2023-05-01T05:26:47.582Z,13.18
2023-05-01T05:27:47.595Z,13.22
2023-05-01T05:28:47.557Z,13.18
2023-05-01T05:29:47.598Z,13.20
2023-05-01T05:30:47.531Z,13.25
2023-05-01T05:31:47.541Z,13.25
2023-05-01T05:32:47.578Z,13.31
2023-05-01T05:33:47.495Z,13.33
2023-05-01T05:34:47.503Z,13.19
2023-05-01T05:35:47.470Z,13.15
2023-05-01T05:36:47.461Z,13.23
2023-05-01T05:37:47.433Z,13.31
2023-05-01T05:38:47.423Z,13.41
2023-05-01T05:39:48.085Z,13.53
2023-05-01T05:40:47.401Z,13.50
2023-05-01T05:41:47.381Z,13.38
2023-05-01T05:42:47.373Z,13.33
2023-05-01T05:43:47.436Z,13.30
2023-05-01T05:44:47.364Z,13.37
2023-05-01T05:45:47.369Z,13.47
2023-05-01T05:46:47.327Z,13.30
2023-05-01T05:47:47.312Z,13.25
2023-05-01T05:48:47.297Z,13.19
2023-05-01T05:49:47.307Z,13.42
2023-05-01T05:50:47.259Z,13.57
2023-05-01T05:51:47.254Z,13.71
2023-05-01T05:52:47.237Z,13.81
2023-05-01T05:53:47.246Z,13.92
2023-05-01T05:54:47.222Z,13.92
2023-05-01T05:55:47.195Z,13.96
2023-05-01T05:56:47.186Z,13.85
2023-05-01T05:57:47.170Z,13.78
2023-05-01T05:58:47.179Z,13.92
2023-05-01T05:59:47.158Z,14.11
2023-05-01T06:00:47.133Z,14.22
2023-05-01T06:01:47.116Z,14.05
2023-05-01T06:02:47.193Z,13.81
2023-05-01T06:03:47.174Z,13.95
2023-05-01T06:04:47.073Z,14.25
2023-05-01T06:05:47.121Z,14.44
2023-05-01T06:06:47.079Z,14.32
2023-05-01T06:07:47.191Z,14.36
2023-05-01T06:08:47.047Z,14.43
2023-05-01T06:09:47.605Z,14.50
2023-05-01T06:11:01.708Z,14.58
2023-05-01T06:11:46.986Z,14.79
2023-05-01T06:12:55.046Z,14.97
2023-05-01T06:13:46.980Z,15.00
2023-05-01T06:14:46.941Z,15.07
2023-05-01T06:15:47.024Z,15.14
2023-05-01T06:16:46.914Z,15.15
2023-05-01T06:17:46.950Z,15.28
2023-05-01T06:18:46.902Z,15.40
2023-05-01T06:19:46.876Z,15.47
2023-05-01T06:20:46.868Z,15.58
2023-05-01T06:21:46.857Z,15.52
2023-05-01T06:22:46.848Z,15.07
2023-05-01T06:23:46.822Z,14.88
2023-05-01T06:24:46.826Z,14.96
2023-05-01T06:25:46.798Z,15.17
2023-05-01T06:26:46.784Z,15.29
2023-05-01T06:27:46.777Z,15.39
2023-05-01T06:28:46.754Z,15.33
2023-05-01T06:29:46.760Z,15.39
2023-05-01T06:30:46.725Z,15.10
2023-05-01T06:31:46.762Z,14.92
2023-05-01T06:32:46.802Z,15.02
2023-05-01T06:33:46.689Z,15.17
2023-05-01T06:34:46.750Z,15.21
2023-05-01T06:35:46.660Z,15.35
2023-05-01T06:36:46.646Z,15.37
2023-05-01T06:37:46.636Z,15.21
2023-05-01T06:38:46.616Z,15.04
2023-05-01T06:39:46.640Z,15.11
2023-05-01T06:40:46.594Z,15.21
2023-05-01T06:41:46.605Z,15.19
2023-05-01T06:42:46.578Z,15.33
2023-05-01T06:43:46.560Z,15.29
2023-05-01T06:44:46.550Z,15.36
2023-05-01T06:45:46.534Z,15.57
2023-05-01T06:46:46.560Z,15.84
2023-05-01T06:47:46.565Z,16.35
2023-05-01T06:48:46.494Z,16.96
2023-05-01T06:49:46.487Z,17.09
2023-05-01T06:50:46.474Z,17.41
2023-05-01T06:51:46.455Z,17.56
2023-05-01T06:52:46.441Z,17.26
2023-05-01T06:53:46.418Z,17.16
2023-05-01T06:54:46.418Z,17.71
2023-05-01T06:55:46.394Z,18.33
2023-05-01T06:56:46.384Z,18.92
2023-05-01T06:57:46.378Z,19.19
2023-05-01T06:58:46.348Z,18.95
2023-05-01T06:59:46.355Z,18.86
2023-05-01T07:00:46.330Z,18.47
2023-05-01T07:01:46.333Z,17.92
2023-05-01T07:02:46.545Z,17.54
2023-05-01T07:03:46.305Z,17.76
2023-05-01T07:04:46.293Z,18.15
2023-05-01T07:05:46.264Z,18.40
2023-05-01T07:06:46.347Z,18.59
2023-05-01T07:07:58.027Z,18.92
2023-05-01T07:08:46.236Z,19.00
2023-05-01T07:09:46.593Z,18.41
2023-05-01T07:10:46.211Z,18.45
2023-05-01T07:11:46.193Z,18.23
2023-05-01T07:12:46.170Z,18.25
2023-05-01T07:13:46.178Z,18.50
2023-05-01T07:14:46.586Z,18.59
2023-05-01T07:15:46.172Z,17.83
2023-05-01T07:16:46.200Z,17.89
2023-05-01T07:17:46.134Z,17.72
2023-05-01T07:18:46.092Z,17.04
2023-05-01T07:19:46.108Z,17.22
2023-05-01T07:20:46.074Z,17.51
2023-05-01T07:21:46.050Z,17.12
2023-05-01T07:22:46.035Z,16.81
2023-05-01T07:23:46.028Z,16.89
2023-05-01T07:24:47.573Z,17.11
2023-05-01T07:25:46.018Z,17.02
2023-05-01T07:26:45.989Z,16.89
2023-05-01T07:27:45.970Z,17.09
2023-05-01T07:28:45.985Z,17.11
2023-05-01T07:29:45.954Z,17.23
2023-05-01T07:30:45.927Z,17.39
2023-05-01T07:31:45.970Z,17.60
2023-05-01T07:32:45.922Z,17.78
2023-05-01T07:33:45.888Z,18.04
2023-05-01T07:34:45.886Z,18.05
2023-05-01T07:35:45.886Z,18.18
2023-05-01T07:36:45.847Z,18.13
2023-05-01T07:37:45.870Z,18.18
2023-05-01T07:38:45.821Z,17.90
2023-05-01T07:39:45.841Z,17.26
2023-05-01T07:40:45.793Z,16.71
2023-05-01T07:41:45.789Z,16.50
2023-05-01T07:42:45.768Z,16.49
2023-05-01T07:43:45.751Z,16.64
2023-05-01T07:44:45.858Z,16.74
2023-05-01T07:45:45.774Z,16.53
2023-05-01T07:46:45.706Z,16.61
2023-05-01T07:47:45.742Z,16.78
2023-05-01T07:48:46.639Z,17.20
2023-05-01T07:49:45.683Z,17.52
2023-05-01T07:50:45.660Z,17.68
2023-05-01T07:51:45.701Z,18.00
2023-05-01T07:52:45.628Z,18.13
2023-05-01T07:53:45.620Z,17.31
2023-05-01T07:54:45.617Z,17.56
2023-05-01T07:55:45.584Z,17.80
2023-05-01T07:56:45.992Z,17.87
2023-05-01T07:57:45.571Z,17.90
2023-05-01T07:58:45.545Z,18.11
2023-05-01T07:59:45.552Z,18.26
2023-05-01T08:00:45.529Z,18.10
2023-05-01T08:01:45.526Z,18.03
2023-05-01T08:02:45.631Z,17.89
2023-05-01T08:03:48.078Z,18.07
2023-05-01T08:04:45.507Z,18.19
2023-05-01T08:05:45.456Z,18.33
2023-05-01T08:06:45.493Z,18.31
2023-05-01T08:07:45.448Z,18.45
2023-05-01T08:08:45.410Z,18.41
2023-05-01T08:09:45.409Z,17.80
2023-05-01T08:10:45.380Z,18.05
2023-05-01T08:11:45.367Z,18.23
2023-05-01T08:12:45.358Z,18.50
2023-05-01T08:13:45.353Z,18.56
2023-05-01T08:14:45.346Z,18.66
2023-05-01T08:15:45.334Z,18.93
2023-05-01T08:16:45.361Z,19.19
2023-05-01T08:17:45.357Z,18.92
2023-05-01T08:18:45.294Z,19.39
2023-05-01T08:19:45.281Z,19.82
2023-05-01T08:20:45.260Z,20.10
2023-05-01T08:21:46.075Z,20.16
2023-05-01T08:22:45.237Z,20.26
2023-05-01T08:23:45.232Z,20.21
2023-05-01T08:24:45.213Z,20.02
2023-05-01T08:25:45.192Z,19.64
2023-05-01T08:26:45.181Z,19.67
2023-05-01T08:27:45.172Z,19.81
2023-05-01T08:28:45.146Z,19.79
2023-05-01T08:29:48.582Z,19.71
2023-05-01T08:30:45.129Z,19.63
2023-05-01T08:31:45.250Z,19.70
2023-05-01T08:32:45.159Z,19.79
2023-05-01T08:33:46.125Z,19.88
2023-05-01T08:34:46.087Z,19.76
2023-05-01T08:35:45.076Z,19.92
2023-05-01T08:36:45.042Z,19.94
2023-05-01T08:37:45.026Z,19.79
2023-05-01T08:38:45.020Z,19.63
2023-05-01T08:39:45.021Z,19.63
2023-05-01T08:40:45.020Z,19.51
2023-05-01T08:41:44.983Z,19.37
2023-05-01T08:42:44.984Z,18.93
2023-05-01T08:43:44.951Z,18.58
2023-05-01T08:44:44.938Z,18.38
2023-05-01T08:45:44.944Z,18.63
2023-05-01T08:46:44.925Z,18.93
2023-05-01T08:47:44.961Z,19.15
2023-05-01T08:48:44.899Z,19.26
2023-05-01T08:49:44.874Z,19.29
2023-05-01T08:50:44.875Z,19.33
2023-05-01T08:51:44.850Z,19.26
2023-05-01T08:52:44.832Z,19.09
2023-05-01T08:53:44.815Z,18.98
2023-05-01T08:54:44.833Z,18.84
2023-05-01T08:55:44.822Z,18.78
2023-05-01T08:56:44.770Z,18.86
2023-05-01T08:57:44.758Z,18.99
2023-05-01T08:58:44.740Z,19.12
2023-05-01T08:59:44.738Z,19.27
2023-05-01T09:00:44.735Z,19.22
2023-05-01T09:01:44.732Z,19.40
2023-05-01T09:02:44.719Z,19.24
2023-05-01T09:03:44.782Z,18.75
2023-05-01T09:04:44.658Z,18.41
2023-05-01T09:05:44.663Z,18.22
2023-05-01T09:06:44.687Z,18.22
2023-05-01T09:07:44.620Z,18.34
2023-05-01T09:08:44.740Z,18.55
2023-05-01T09:09:44.602Z,18.77
2023-05-01T09:10:44.596Z,18.74
2023-05-01T09:11:44.609Z,18.41
2023-05-01T09:12:44.560Z,18.13
2023-05-01T09:13:44.544Z,17.92
2023-05-01T09:14:44.525Z,18.01
2023-05-01T09:15:44.575Z,17.98
2023-05-01T09:16:44.581Z,17.74
2023-05-01T09:17:44.535Z,17.57
2023-05-01T09:18:44.473Z,17.64
2023-05-01T09:19:44.540Z,17.72
2023-05-01T09:20:44.476Z,17.74
2023-05-01T09:21:44.458Z,17.87
2023-05-01T09:22:44.420Z,18.18
2023-05-01T09:23:44.779Z,18.43
2023-05-01T09:24:44.395Z,18.53
2023-05-01T09:25:47.194Z,18.47
2023-05-01T09:26:44.369Z,18.52
2023-05-01T09:27:44.380Z,18.52
2023-05-01T09:28:44.353Z,18.83
2023-05-01T09:29:44.347Z,18.98
2023-05-01T09:30:44.363Z,18.89
2023-05-01T09:31:44.353Z,18.63
2023-05-01T09:32:44.293Z,18.37
2023-05-01T09:33:44.287Z,18.19
2023-05-01T09:34:44.266Z,18.07
2023-05-01T09:35:44.247Z,18.08
2023-05-01T09:36:44.248Z,17.87
2023-05-01T09:37:44.867Z,18.05
2023-05-01T09:38:44.225Z,18.16
2023-05-01T09:39:44.198Z,18.37
2023-05-01T09:40:44.179Z,18.45
2023-05-01T09:41:44.188Z,18.38
2023-05-01T09:42:44.162Z,18.34
2023-05-01T09:43:44.165Z,18.31
2023-05-01T09:44:44.136Z,18.33
2023-05-01T09:45:44.181Z,18.31
2023-05-01T09:46:44.184Z,18.28
2023-05-01T09:47:44.235Z,18.40
2023-05-01T09:48:44.075Z,18.45
2023-05-01T09:49:44.063Z,18.55
2023-05-01T09:50:44.057Z,18.70
2023-05-01T09:51:44.056Z,18.71
2023-05-01T09:52:44.020Z,18.49
2023-05-01T09:53:44.005Z,18.45
2023-05-01T09:54:44.585Z,18.44
2023-05-01T09:55:43.991Z,18.58
2023-05-01T09:56:43.981Z,18.70
2023-05-01T09:57:43.966Z,18.84
2023-05-01T09:58:43.942Z,18.90
2023-05-01T09:59:43.955Z,18.78
2023-05-01T10:00:43.925Z,18.80
2023-05-01T10:01:44.022Z,18.90
2023-05-01T10:02:43.969Z,18.95
2023-05-01T10:03:43.971Z,18.96
2023-05-01T10:04:43.865Z,19.04
2023-05-01T10:05:43.845Z,19.11
2023-05-01T10:06:44.211Z,19.19
2023-05-01T10:07:43.894Z,18.92
2023-05-01T10:08:43.808Z,18.83
2023-05-01T10:09:43.789Z,18.73
2023-05-01T10:10:43.925Z,18.33
2023-05-01T10:11:43.777Z,18.29
2023-05-01T10:12:43.784Z,18.10
2023-05-01T10:13:43.734Z,18.28
2023-05-01T10:14:43.758Z,18.41
2023-05-01T10:15:43.845Z,18.60
2023-05-01T10:16:43.786Z,18.62
2023-05-01T10:17:43.696Z,18.73
2023-05-01T10:18:43.685Z,18.98
2023-05-01T10:19:43.655Z,19.11
2023-05-01T10:20:43.657Z,19.15
2023-05-01T10:21:43.685Z,19.08
2023-05-01T10:22:43.638Z,19.24
2023-05-01T10:23:43.612Z,19.14
2023-05-01T10:24:43.588Z,18.98
2023-05-01T10:25:43.592Z,18.71
2023-05-01T10:26:43.611Z,18.40
2023-05-01T10:27:43.590Z,18.20
2023-05-01T10:28:43.540Z,18.16
2023-05-01T10:29:43.521Z,18.19
2023-05-01T10:30:43.506Z,18.23
2023-05-01T10:31:43.574Z,18.33
2023-05-01T10:32:43.517Z,18.55
2023-05-01T10:33:43.479Z,18.62
2023-05-01T10:34:43.464Z,18.38
2023-05-01T10:35:43.440Z,18.28
2023-05-01T10:36:43.438Z,18.16
2023-05-01T10:37:43.408Z,17.97
2023-05-01T10:38:43.403Z,17.94
2023-05-01T10:39:43.387Z,17.78
2023-05-01T10:40:43.385Z,17.65
2023-05-01T10:41:43.376Z,17.65
2023-05-01T10:42:43.361Z,17.67
2023-05-01T10:43:43.330Z,17.68
2023-05-01T10:44:43.353Z,17.59
2023-05-01T10:45:43.303Z,17.64
2023-05-01T10:46:43.340Z,17.80
2023-05-01T10:47:43.415Z,17.92
2023-05-01T10:48:43.282Z,17.63
2023-05-01T10:49:43.274Z,17.57
2023-05-01T10:50:43.272Z,17.44
2023-05-01T10:51:43.227Z,17.29
2023-05-01T10:52:43.224Z,17.20
2023-05-01T10:53:43.198Z,17.08
2023-05-01T10:54:43.198Z,17.05
2023-05-01T10:55:43.163Z,17.05
2023-05-01T10:56:43.206Z,16.99
2023-05-01T10:57:43.173Z,16.93
2023-05-01T10:58:46.077Z,16.86
2023-05-01T10:59:43.126Z,16.96
2023-05-01T11:00:43.116Z,16.99
2023-05-01T11:01:43.267Z,17.01
2023-05-01T11:02:43.114Z,17.22
2023-05-01T11:03:43.078Z,17.12
2023-05-01T11:04:43.089Z,17.09
2023-05-01T11:05:43.085Z,17.09
2023-05-01T11:06:43.238Z,17.14
2023-05-01T11:07:43.010Z,16.99
2023-05-01T11:08:44.059Z,16.91
2023-05-01T11:09:43.007Z,17.12
2023-05-01T11:10:42.969Z,17.33
2023-05-01T11:11:42.958Z,17.16
2023-05-01T11:12:42.954Z,17.14
2023-05-01T11:13:42.924Z,17.23
2023-05-01T11:14:42.913Z,17.27
2023-05-01T11:15:42.901Z,17.41
2023-05-01T11:16:43.006Z,17.41
2023-05-01T11:17:43.286Z,17.48
2023-05-01T11:18:42.860Z,17.33
2023-05-01T11:19:42.866Z,17.31
2023-05-01T11:20:42.840Z,17.33
2023-05-01T11:21:42.831Z,17.11
2023-05-01T11:22:42.834Z,16.90
2023-05-01T11:23:42.795Z,16.87
2023-05-01T11:24:42.785Z,16.86
2023-05-01T11:25:42.775Z,16.72
2023-05-01T11:26:42.767Z,16.78
2023-05-01T11:27:42.767Z,16.91
2023-05-01T11:28:42.741Z,17.11
2023-05-01T11:29:42.720Z,17.05
2023-05-01T11:30:42.713Z,17.08
2023-05-01T11:31:42.712Z,17.15
2023-05-01T11:32:42.736Z,17.01
2023-05-01T11:33:42.657Z,16.86
2023-05-01T11:34:42.652Z,16.87
2023-05-01T11:35:42.654Z,17.09
2023-05-01T11:36:42.623Z,17.08
2023-05-01T11:37:42.632Z,16.91
2023-05-01T11:38:42.601Z,16.89
2023-05-01T11:39:42.582Z,16.79
2023-05-01T11:40:42.641Z,16.93
2023-05-01T11:41:42.696Z,16.90
2023-05-01T11:42:42.557Z,17.09
2023-05-01T11:43:42.531Z,17.29
2023-05-01T11:44:42.533Z,17.57
2023-05-01T11:45:42.531Z,17.76
2023-05-01T11:46:42.489Z,18.23
2023-05-01T11:47:42.506Z,18.60
2023-05-01T11:48:42.494Z,19.04
2023-05-01T11:49:42.447Z,19.11
2023-05-01T11:50:42.442Z,19.09
2023-05-01T11:51:42.444Z,18.86
2023-05-01T11:52:42.420Z,18.49
2023-05-01T11:53:42.406Z,18.62
2023-05-01T11:54:42.382Z,18.37
2023-05-01T11:55:42.386Z,18.31
2023-05-01T11:56:42.352Z,18.01
2023-05-01T11:57:42.341Z,17.79
2023-05-01T11:58:42.342Z,18.03
2023-05-01T11:59:42.315Z,18.01
2023-05-01T12:00:42.341Z,18.08
2023-05-01T12:01:42.288Z,18.47
2023-05-01T12:02:42.386Z,18.63
2023-05-01T12:03:42.450Z,18.63
2023-05-01T12:04:42.283Z,18.50
2023-05-01T12:05:42.250Z,18.28
2023-05-01T12:06:42.322Z,18.10
2023-05-01T12:07:42.237Z,18.26
2023-05-01T12:08:42.214Z,18.26
2023-05-01T12:09:42.186Z,18.22
2023-05-01T12:10:42.177Z,18.35
2023-05-01T12:11:42.154Z,18.49
2023-05-01T12:12:42.151Z,18.43
2023-05-01T12:13:42.144Z,18.29
2023-05-01T12:14:42.115Z,18.11
2023-05-01T12:15:42.108Z,18.35
2023-05-01T12:16:42.187Z,18.33
2023-05-01T12:17:42.131Z,18.49
2023-05-01T12:18:42.081Z,18.62
2023-05-01T12:19:42.048Z,18.84
2023-05-01T12:20:42.041Z,18.88
2023-05-01T12:21:42.040Z,18.66
2023-05-01T12:22:42.011Z,18.60
2023-05-01T12:23:42.035Z,18.68
2023-05-01T12:24:42.014Z,18.99
2023-05-01T12:25:41.970Z,19.08
2023-05-01T12:26:41.956Z,19.49
2023-05-01T12:27:41.937Z,19.55
2023-05-01T12:28:41.945Z,19.64
2023-05-01T12:29:41.918Z,19.48
2023-05-01T12:30:41.901Z,19.40
2023-05-01T12:31:41.953Z,19.45
2023-05-01T12:32:41.898Z,19.12
2023-05-01T12:33:41.876Z,19.00
2023-05-01T12:34:41.847Z,19.09
2023-05-01T12:35:41.841Z,19.26
2023-05-01T12:36:41.820Z,19.44
2023-05-01T12:37:41.804Z,19.59
2023-05-01T12:38:41.804Z,19.77
2023-05-01T12:39:41.797Z,19.88
2023-05-01T12:40:41.766Z,20.34
2023-05-01T12:41:41.762Z,20.62
2023-05-01T12:42:41.748Z,20.02
2023-05-01T12:43:43.770Z,19.58
2023-05-01T12:44:41.714Z,19.56
2023-05-01T12:45:41.696Z,19.15
2023-05-01T12:46:41.730Z,19.27
2023-05-01T12:47:41.721Z,19.31
2023-05-01T12:48:41.673Z,19.52
2023-05-01T12:49:41.658Z,19.39
2023-05-01T12:50:41.645Z,19.30
2023-05-01T12:51:41.617Z,19.63
2023-05-01T12:52:41.622Z,20.07